Terminal Aerodrome Forecast
Issued by NWS North Platte, NE

Home | Current Version | Previous Version | Text Only | Print | Product List | Glossary Off
Versions: 1 2 3 4 5 6 7 8 9 10 11 12 13

833
FTUS43 KLBF 181120
TAFVTN
TAF
KVTN 181120Z 1812/1912 26007KT P6SM SCT250
     FM181400 33016G25KT P6SM SCT250
     FM182100 34010KT P6SM FEW250
     FM190000 VRB06KT P6SM SKC=

USA.gov is the U.S. government's official web portal to all federal, state and local government web resources and services.